createdAt,value
2022-12-07T00:01:47.755Z,2.03
2022-12-07T00:04:16.226Z,2.00
2022-12-07T00:06:44.421Z,1.83
2022-12-07T00:09:13.352Z,1.52
2022-12-07T00:11:40.060Z,2.03
2022-12-07T00:14:08.885Z,1.60
2022-12-07T00:16:35.967Z,1.45
2022-12-07T00:19:03.214Z,1.95
2022-12-07T00:21:31.868Z,2.05
2022-12-07T00:23:58.660Z,1.75
2022-12-07T00:26:36.337Z,1.80
2022-12-07T00:29:05.436Z,1.70
2022-12-07T00:31:34.771Z,1.90
2022-12-07T00:34:01.615Z,2.70
2022-12-07T00:36:28.702Z,1.70
2022-12-07T00:38:55.863Z,1.73
2022-12-07T00:41:24.218Z,2.70
2022-12-07T00:43:51.479Z,2.00
2022-12-07T00:46:18.523Z,2.15
2022-12-07T00:48:45.368Z,1.70
2022-12-07T00:51:12.851Z,2.13
2022-12-07T00:53:41.817Z,2.40
2022-12-07T00:56:10.054Z,2.08
2022-12-07T00:58:36.888Z,2.50
2022-12-07T01:01:04.869Z,2.50
2022-12-07T01:03:31.713Z,2.10
2022-12-07T01:05:58.685Z,2.28
2022-12-07T01:08:25.872Z,2.47
2022-12-07T01:11:08.807Z,1.90
2022-12-07T01:13:35.918Z,2.40
2022-12-07T01:16:04.901Z,2.60
2022-12-07T01:18:32.445Z,2.75
2022-12-07T01:21:00.437Z,2.50
2022-12-07T01:23:27.200Z,2.20
2022-12-07T01:26:01.100Z,2.25
2022-12-07T01:28:27.902Z,3.75
2022-12-07T01:31:06.192Z,2.80
2022-12-07T01:33:34.597Z,2.33
2022-12-07T01:36:08.181Z,2.30
2022-12-07T01:38:35.043Z,2.75
2022-12-07T01:41:02.129Z,2.22
2022-12-07T01:43:29.975Z,2.78
2022-12-07T01:45:56.993Z,2.47
2022-12-07T01:48:30.093Z,2.40
2022-12-07T01:50:57.536Z,2.58
2022-12-07T01:53:25.625Z,2.80
2022-12-07T01:55:52.952Z,2.65
2022-12-07T01:58:19.722Z,3.53
2022-12-07T02:00:46.615Z,2.92
2022-12-07T02:03:28.737Z,2.60
2022-12-07T02:05:55.439Z,2.63
2022-12-07T02:08:22.336Z,2.60
2022-12-07T02:10:49.251Z,2.55
2022-12-07T02:13:21.019Z,2.20
2022-12-07T02:15:56.604Z,2.80
2022-12-07T02:18:36.801Z,2.70
2022-12-07T02:21:25.847Z,2.65
2022-12-07T02:24:20.816Z,3.22
2022-12-07T02:26:53.336Z,2.83
2022-12-07T02:29:28.699Z,2.55
2022-12-07T02:31:57.403Z,2.10
2022-12-07T02:34:48.655Z,2.15
2022-12-07T02:37:40.287Z,3.70
2022-12-07T02:40:39.694Z,3.05
2022-12-07T02:43:13.559Z,2.35
2022-12-07T02:45:40.904Z,2.50
2022-12-07T02:48:07.652Z,2.40
2022-12-07T02:50:34.389Z,2.72
2022-12-07T02:53:01.143Z,1.95
2022-12-07T02:55:41.008Z,2.53
2022-12-07T02:58:15.311Z,2.55
2022-12-07T03:01:12.158Z,2.58
2022-12-07T03:03:38.924Z,2.53
2022-12-07T03:06:12.867Z,2.47
2022-12-07T03:08:51.550Z,2.88
2022-12-07T03:11:27.066Z,2.80
2022-12-07T03:14:10.350Z,2.50
2022-12-07T03:16:42.825Z,2.92
2022-12-07T03:19:12.133Z,2.53
2022-12-07T03:21:40.890Z,2.30
2022-12-07T03:24:16.775Z,2.85
2022-12-07T03:26:48.608Z,2.75
2022-12-07T03:29:28.361Z,2.55
2022-12-07T03:32:17.022Z,2.35
2022-12-07T03:35:08.713Z,1.98
2022-12-07T03:37:36.109Z,5.07
2022-12-07T03:40:12.095Z,1.85
2022-12-07T03:42:38.813Z,2.05
2022-12-07T03:45:05.877Z,2.25
2022-12-07T03:47:34.948Z,2.00
2022-12-07T03:50:13.021Z,1.73
2022-12-07T03:52:57.137Z,1.60
2022-12-07T03:55:33.898Z,1.80
2022-12-07T03:58:05.321Z,1.88
2022-12-07T04:00:32.145Z,2.10
2022-12-07T04:02:58.947Z,1.88
2022-12-07T04:05:25.772Z,1.70
2022-12-07T04:07:52.821Z,1.38
2022-12-07T04:10:19.750Z,1.40
2022-12-07T04:12:46.538Z,1.83
2022-12-07T04:15:13.441Z,1.70
2022-12-07T04:17:40.227Z,1.42
2022-12-07T04:20:07.630Z,1.50
2022-12-07T04:22:34.487Z,1.85
2022-12-07T04:25:01.300Z,2.10
2022-12-07T04:27:28.094Z,2.05
2022-12-07T04:29:56.562Z,2.13
2022-12-07T04:32:24.275Z,1.90
2022-12-07T04:34:55.368Z,1.75
2022-12-07T04:37:22.853Z,2.30
2022-12-07T04:39:49.501Z,1.60
2022-12-07T04:42:16.264Z,1.70
2022-12-07T04:44:43.056Z,1.90
2022-12-07T04:47:09.894Z,1.83
2022-12-07T04:49:36.668Z,2.53
2022-12-07T04:52:03.478Z,2.10
2022-12-07T04:54:30.251Z,1.98
2022-12-07T04:56:56.973Z,1.80
2022-12-07T04:59:23.621Z,2.60
2022-12-07T05:01:50.554Z,2.22
2022-12-07T05:04:18.829Z,1.73
2022-12-07T05:06:45.608Z,1.77
2022-12-07T05:09:12.478Z,2.40
2022-12-07T05:11:39.220Z,1.60
2022-12-07T05:14:13.912Z,2.25
2022-12-07T05:16:41.199Z,1.98
2022-12-07T05:19:08.029Z,2.25
2022-12-07T05:21:34.898Z,2.40
2022-12-07T05:24:01.706Z,2.15
2022-12-07T05:26:28.481Z,2.08
2022-12-07T05:28:56.102Z,2.00
2022-12-07T05:31:23.204Z,2.55
2022-12-07T05:33:50.060Z,3.03
2022-12-07T05:36:16.841Z,2.30
2022-12-07T05:38:43.572Z,2.50
2022-12-07T05:41:32.797Z,2.15
2022-12-07T05:43:59.682Z,2.72
2022-12-07T05:46:26.513Z,2.05
2022-12-07T05:48:53.399Z,2.75
2022-12-07T05:51:20.147Z,2.70
2022-12-07T05:53:46.938Z,2.80
2022-12-07T05:56:13.727Z,2.90
2022-12-07T05:58:58.889Z,2.80
2022-12-07T06:01:25.640Z,2.55
2022-12-07T06:03:52.400Z,3.45
2022-12-07T06:06:19.206Z,1.98
2022-12-07T06:08:46.012Z,3.22
2022-12-07T06:11:31.212Z,2.42
2022-12-07T06:13:57.925Z,3.38
2022-12-07T06:16:24.677Z,2.85
2022-12-07T06:18:51.473Z,3.05
2022-12-07T06:21:18.141Z,2.85
2022-12-07T06:23:44.900Z,3.83
2022-12-07T06:26:11.699Z,2.55
2022-12-07T06:28:38.465Z,2.60
2022-12-07T06:31:09.516Z,3.17
2022-12-07T06:33:39.206Z,1.92
2022-12-07T06:36:06.207Z,2.75
2022-12-07T06:38:33.018Z,2.47
2022-12-07T06:40:59.855Z,2.08
2022-12-07T06:43:26.608Z,2.42
2022-12-07T06:45:53.349Z,2.35
2022-12-07T06:48:20.192Z,2.05
2022-12-07T06:50:51.268Z,2.70
2022-12-07T06:53:21.328Z,2.10
2022-12-07T06:55:48.060Z,2.78
2022-12-07T06:58:14.799Z,2.10
2022-12-07T07:00:41.714Z,2.17
2022-12-07T07:03:08.446Z,2.50
2022-12-07T07:05:35.303Z,3.42
2022-12-07T07:10:48.929Z,3.20
2022-12-07T07:13:15.759Z,4.07
2022-12-07T07:15:42.613Z,5.07
2022-12-07T07:18:09.328Z,3.83
2022-12-07T07:20:36.138Z,4.75
2022-12-07T07:23:03.898Z,3.92
2022-12-07T07:25:30.800Z,4.68
2022-12-07T07:27:57.548Z,4.78
2022-12-07T07:30:24.504Z,3.83
2022-12-07T07:32:51.277Z,4.22
2022-12-07T07:35:18.072Z,4.65
2022-12-07T07:37:44.865Z,4.28
2022-12-07T07:40:11.821Z,3.83
2022-12-07T07:42:38.538Z,5.07
2022-12-07T07:45:05.637Z,4.00
2022-12-07T07:47:32.323Z,4.40
2022-12-07T07:49:59.013Z,4.03
2022-12-07T07:52:25.759Z,5.65
2022-12-07T07:54:53.904Z,5.93
2022-12-07T07:57:20.691Z,4.63
2022-12-07T07:59:47.388Z,3.83
2022-12-07T08:02:15.891Z,3.25
2022-12-07T08:04:42.793Z,5.47
2022-12-07T08:07:09.614Z,3.38
2022-12-07T08:09:36.311Z,3.40
2022-12-07T08:12:03.228Z,3.05
2022-12-07T08:14:29.996Z,3.45
2022-12-07T08:16:56.770Z,3.67
2022-12-07T08:19:23.550Z,4.28
2022-12-07T08:21:50.365Z,4.50
2022-12-07T08:24:17.322Z,4.70
2022-12-07T08:26:44.178Z,4.30
2022-12-07T08:29:11.105Z,4.97
2022-12-07T08:31:37.955Z,5.95
2022-12-07T08:34:04.813Z,4.43
2022-12-07T08:36:31.539Z,4.90
2022-12-07T08:41:44.990Z,4.38
2022-12-07T08:44:11.702Z,5.57
2022-12-07T08:46:40.479Z,4.68
2022-12-07T08:49:16.959Z,4.20
2022-12-07T08:51:43.722Z,3.58
2022-12-07T08:54:12.804Z,4.53
2022-12-07T08:56:39.575Z,3.92
2022-12-07T08:59:06.422Z,3.60
2022-12-07T09:01:33.967Z,4.03
2022-12-07T09:04:00.790Z,3.75
2022-12-07T09:06:27.665Z,4.88
2022-12-07T09:08:57.474Z,5.57
2022-12-07T09:11:28.595Z,3.63
2022-12-07T09:13:56.060Z,3.63
2022-12-07T09:16:22.901Z,4.30
2022-12-07T09:18:49.781Z,4.95
2022-12-07T09:21:16.555Z,5.13
2022-12-07T09:23:43.849Z,4.80
2022-12-07T09:26:11.171Z,4.90
2022-12-07T09:28:38.353Z,6.97
2022-12-07T09:33:59.839Z,5.10
2022-12-07T09:36:26.855Z,10.00
2022-12-07T09:38:53.692Z,5.72
2022-12-07T09:41:20.613Z,8.18
2022-12-07T09:43:48.068Z,4.75
2022-12-07T09:46:16.427Z,4.88
2022-12-07T09:48:43.545Z,4.93
2022-12-07T09:51:23.647Z,3.78
2022-12-07T09:53:52.290Z,5.22
2022-12-07T09:56:19.587Z,5.78
2022-12-07T09:58:46.641Z,4.10
2022-12-07T10:01:19.717Z,3.60
2022-12-07T10:03:50.080Z,4.47
2022-12-07T10:06:16.823Z,4.13
2022-12-07T10:08:44.449Z,3.78
2022-12-07T10:11:11.856Z,3.80
2022-12-07T10:13:40.304Z,3.88
2022-12-07T10:16:08.003Z,3.70
2022-12-07T10:18:45.469Z,3.77
2022-12-07T10:21:18.821Z,3.50
2022-12-07T10:24:06.053Z,5.00
2022-12-07T10:26:34.001Z,4.22
2022-12-07T10:29:18.226Z,6.35
2022-12-07T10:31:45.308Z,3.97
2022-12-07T10:34:25.627Z,4.30
2022-12-07T10:36:52.945Z,5.10
2022-12-07T10:39:21.331Z,4.07
2022-12-07T10:42:00.888Z,4.50
2022-12-07T10:44:32.537Z,5.13
2022-12-07T10:47:09.058Z,4.40
2022-12-07T10:49:52.838Z,3.55
2022-12-07T10:52:38.092Z,3.80
2022-12-07T10:55:33.948Z,4.47
2022-12-07T10:58:38.062Z,4.63
2022-12-07T11:01:23.403Z,3.93
2022-12-07T11:03:54.395Z,4.93
2022-12-07T11:06:39.079Z,3.83
2022-12-07T11:09:38.574Z,4.53
2022-12-07T11:12:47.793Z,7.93
2022-12-07T11:15:26.283Z,7.77
2022-12-07T11:18:11.714Z,5.90
2022-12-07T11:20:47.879Z,7.23
2022-12-07T11:23:51.821Z,7.10
2022-12-07T11:26:25.068Z,5.70
2022-12-07T11:29:04.118Z,4.87
2022-12-07T11:31:41.862Z,6.10
2022-12-07T11:34:12.359Z,5.03
2022-12-07T11:36:42.840Z,4.43
2022-12-07T11:39:35.356Z,5.37
2022-12-07T11:42:26.203Z,4.70
2022-12-07T12:18:21.297Z,3.40
2022-12-07T12:20:53.028Z,3.20
2022-12-07T12:23:20.695Z,2.70
2022-12-07T12:25:49.152Z,2.80
2022-12-07T12:28:33.697Z,2.60
2022-12-07T12:31:12.862Z,2.87
2022-12-07T12:33:43.504Z,3.10
2022-12-07T12:36:16.547Z,3.10
2022-12-07T12:39:14.572Z,3.10
2022-12-07T12:41:44.295Z,2.73
2022-12-07T12:44:19.095Z,3.03
2022-12-07T12:47:05.716Z,3.33
2022-12-07T12:49:39.196Z,3.63
2022-12-07T12:52:15.088Z,2.97
2022-12-07T12:55:09.678Z,3.53
2022-12-07T12:57:36.610Z,2.40
2022-12-07T13:00:17.578Z,2.73
2022-12-07T13:02:50.942Z,2.83
2022-12-07T13:05:23.512Z,2.33
2022-12-07T13:08:17.591Z,2.80
2022-12-07T13:10:45.792Z,2.43
2022-12-07T13:13:13.328Z,2.73
2022-12-07T13:15:39.981Z,2.87
2022-12-07T13:18:28.754Z,3.27
2022-12-07T13:20:58.321Z,2.80
2022-12-07T13:23:41.119Z,2.40
2022-12-07T13:26:16.943Z,3.30
2022-12-07T13:28:49.439Z,3.63
2022-12-07T13:31:30.521Z,3.27
2022-12-07T13:33:57.292Z,3.33
2022-12-07T13:36:25.504Z,2.43
2022-12-07T13:39:01.593Z,2.80
2022-12-07T13:41:29.546Z,2.50
2022-12-07T13:44:06.313Z,2.50
2022-12-07T13:47:22.490Z,2.87
2022-12-07T13:49:53.419Z,2.87
2022-12-07T13:52:25.855Z,2.97
2022-12-07T13:55:00.533Z,2.80
2022-12-07T13:57:28.763Z,2.57
2022-12-07T13:59:55.445Z,2.20
2022-12-07T14:02:34.464Z,2.03
2022-12-07T14:05:29.149Z,1.87
2022-12-07T14:07:56.193Z,2.70
2022-12-07T14:10:29.877Z,2.03
2022-12-07T14:12:57.480Z,2.83
2022-12-07T14:15:29.477Z,2.60
2022-12-07T14:17:56.492Z,2.60
2022-12-07T14:20:33.835Z,2.40
2022-12-07T14:23:00.696Z,2.23
2022-12-07T14:25:27.857Z,2.23
2022-12-07T14:27:59.345Z,2.47
2022-12-07T14:30:30.929Z,2.67
2022-12-07T14:33:00.040Z,1.90
2022-12-07T14:35:26.829Z,2.33
2022-12-07T14:37:53.592Z,2.17
2022-12-07T14:40:28.491Z,2.22
2022-12-07T14:43:00.367Z,4.03
2022-12-07T14:45:27.088Z,2.17
2022-12-07T14:53:36.805Z,2.43
2022-12-07T14:56:08.258Z,2.40
2022-12-07T14:58:35.020Z,1.90
2022-12-07T15:01:01.753Z,2.40
2022-12-07T15:03:28.707Z,3.37
2022-12-07T15:05:55.481Z,2.03
2022-12-07T15:08:22.329Z,3.03
2022-12-07T15:10:49.096Z,2.03
2022-12-07T15:13:34.450Z,2.83
2022-12-07T15:16:01.321Z,3.13
2022-12-07T15:18:28.731Z,4.50
2022-12-07T15:20:56.176Z,4.50
2022-12-07T15:23:22.834Z,3.97
2022-12-07T15:25:49.831Z,3.17
2022-12-07T15:28:16.771Z,2.90
2022-12-07T15:30:46.827Z,3.13
2022-12-07T15:33:13.855Z,2.77
2022-12-07T15:35:41.821Z,2.67
2022-12-07T15:38:09.259Z,2.30
2022-12-07T15:40:36.147Z,2.60
2022-12-07T15:43:03.505Z,2.13
2022-12-07T15:45:30.207Z,1.73
2022-12-07T15:50:43.742Z,1.90
2022-12-07T15:53:10.483Z,2.30
2022-12-07T15:55:42.592Z,2.20
2022-12-07T15:58:09.498Z,2.30
2022-12-07T16:00:38.894Z,2.40
2022-12-07T16:03:05.763Z,2.07
2022-12-07T16:05:32.741Z,2.80
2022-12-07T16:08:02.110Z,2.17
2022-12-07T16:10:28.972Z,2.10
2022-12-07T16:12:55.705Z,2.50
2022-12-07T16:15:24.573Z,2.08
2022-12-07T16:17:52.339Z,2.33
2022-12-07T16:20:19.189Z,2.03
2022-12-07T16:22:45.967Z,3.20
2022-12-07T16:25:12.812Z,2.47
2022-12-07T16:27:40.336Z,2.72
2022-12-07T16:30:07.790Z,2.58
2022-12-07T16:32:34.574Z,2.78
2022-12-07T16:35:01.991Z,2.20
2022-12-07T16:37:29.089Z,2.80
2022-12-07T16:39:55.844Z,3.17
2022-12-07T16:42:22.591Z,2.83
2022-12-07T16:44:49.294Z,3.22
2022-12-07T16:47:16.067Z,3.95
2022-12-07T16:49:43.798Z,3.63
2022-12-07T16:52:25.988Z,3.80
2022-12-07T16:54:52.678Z,3.75
2022-12-07T16:57:23.366Z,4.05
2022-12-07T16:59:51.207Z,3.42
2022-12-07T17:02:17.956Z,3.78
2022-12-07T17:04:44.705Z,3.03
2022-12-07T17:07:11.567Z,2.95
2022-12-07T17:09:38.282Z,2.67
2022-12-07T17:12:06.982Z,3.20
2022-12-07T17:14:52.194Z,2.92
2022-12-07T17:17:18.949Z,2.78
2022-12-07T17:19:48.881Z,2.65
2022-12-07T17:22:15.610Z,2.90
2022-12-07T17:24:42.301Z,3.15
2022-12-07T17:27:09.348Z,3.55
2022-12-07T17:29:36.206Z,3.88
2022-12-07T17:32:03.009Z,3.97
2022-12-07T17:34:29.791Z,3.80
2022-12-07T17:36:56.571Z,5.60
2022-12-07T17:39:23.351Z,5.00
2022-12-07T17:42:08.558Z,4.90
2022-12-07T17:44:35.273Z,4.50
2022-12-07T17:47:03.983Z,5.35
2022-12-07T17:49:31.072Z,4.78
2022-12-07T17:52:16.707Z,5.20
2022-12-07T17:54:43.571Z,4.50
2022-12-07T17:57:10.320Z,5.22
2022-12-07T17:59:37.073Z,4.55
2022-12-07T18:02:04.009Z,6.45
2022-12-07T18:04:30.695Z,5.20
2022-12-07T18:06:57.431Z,4.30
2022-12-07T18:09:24.195Z,5.03
2022-12-07T18:11:50.908Z,4.70
2022-12-07T18:14:17.839Z,4.93
2022-12-07T18:16:44.646Z,4.30
2022-12-07T18:19:13.575Z,4.20
2022-12-07T18:21:40.471Z,4.80
2022-12-07T18:24:08.921Z,4.82
2022-12-07T18:26:38.232Z,4.90
2022-12-07T18:29:08.490Z,4.00
2022-12-07T18:31:35.805Z,4.28
2022-12-07T18:34:12.078Z,4.70
2022-12-07T18:36:39.848Z,4.15
2022-12-07T18:39:06.737Z,5.20
2022-12-07T18:41:33.526Z,4.90
2022-12-07T18:44:00.289Z,5.00
2022-12-07T18:46:27.072Z,5.22
2022-12-07T18:48:57.060Z,5.43
2022-12-07T18:51:28.790Z,5.65
2022-12-07T18:53:59.963Z,4.90
2022-12-07T18:56:26.848Z,4.50
2022-12-07T18:59:14.040Z,4.72
2022-12-07T19:01:47.387Z,4.25
2022-12-07T19:04:14.211Z,4.25
2022-12-07T19:06:44.734Z,3.95
2022-12-07T19:09:11.825Z,5.25
2022-12-07T19:11:50.665Z,5.07
2022-12-07T19:14:28.745Z,4.13
2022-12-07T19:17:06.338Z,4.40
2022-12-07T19:19:35.387Z,4.72
2022-12-07T19:22:02.413Z,4.40
2022-12-07T19:24:29.272Z,4.88
2022-12-07T19:26:56.211Z,3.80
2022-12-07T19:29:22.974Z,4.50
2022-12-07T19:31:49.743Z,4.00
2022-12-07T19:34:17.083Z,3.67
2022-12-07T19:36:44.259Z,3.28
2022-12-07T19:39:14.716Z,2.80
2022-12-07T19:41:43.919Z,3.13
2022-12-07T19:44:15.277Z,3.70
2022-12-07T19:46:42.525Z,3.15
2022-12-07T19:49:09.290Z,3.10
2022-12-07T19:51:36.074Z,3.85
2022-12-07T19:54:02.896Z,3.97
2022-12-07T19:56:30.242Z,3.88
2022-12-07T19:58:59.949Z,3.75
2022-12-07T20:01:26.865Z,3.75
2022-12-07T20:03:53.921Z,3.47
2022-12-07T20:06:20.810Z,3.58
2022-12-07T20:08:47.968Z,3.05
2022-12-07T20:11:50.847Z,3.80
2022-12-07T20:14:17.661Z,4.18
2022-12-07T20:16:45.730Z,6.03
2022-12-07T20:19:13.548Z,5.90
2022-12-07T20:21:40.503Z,6.05
2022-12-07T20:24:07.722Z,5.25
2022-12-07T20:26:35.055Z,6.68
2022-12-07T20:29:09.955Z,6.53
2022-12-07T20:31:39.074Z,4.82
2022-12-07T20:34:06.004Z,4.82
2022-12-07T20:36:33.450Z,4.30
2022-12-07T20:39:01.357Z,4.85
2022-12-07T20:41:46.651Z,5.50
2022-12-07T20:44:14.279Z,5.25
2022-12-07T20:46:41.467Z,5.05
2022-12-07T20:49:08.896Z,5.55
2022-12-07T20:51:35.636Z,5.32
2022-12-07T20:54:02.401Z,5.15
2022-12-07T20:56:30.409Z,4.78
2022-12-07T20:58:58.329Z,5.15
2022-12-07T21:01:25.445Z,5.30
2022-12-07T21:03:59.209Z,5.50
2022-12-07T21:06:26.489Z,5.13
2022-12-07T21:08:54.863Z,4.57
2022-12-07T21:11:21.917Z,6.00
2022-12-07T21:13:48.790Z,3.72
2022-12-07T21:16:23.585Z,3.58
2022-12-07T21:18:50.723Z,3.30
2022-12-07T21:21:19.341Z,3.38
2022-12-07T21:23:47.285Z,3.17
2022-12-07T21:26:15.873Z,2.15
2022-12-07T21:28:42.557Z,1.90
2022-12-07T21:31:13.624Z,1.70
2022-12-07T21:33:41.128Z,1.55
2022-12-07T21:36:09.858Z,1.98
2022-12-07T21:38:36.849Z,1.48
2022-12-07T21:41:14.461Z,1.90
2022-12-07T21:43:41.159Z,1.23
2022-12-07T21:46:07.984Z,2.10
2022-12-07T21:48:34.824Z,1.65
2022-12-07T21:51:09.564Z,1.30
2022-12-07T21:53:37.064Z,1.25
2022-12-07T21:56:04.043Z,1.52
2022-12-07T21:58:31.359Z,1.60
2022-12-07T22:00:59.102Z,1.33
2022-12-07T22:03:25.944Z,1.75
2022-12-07T22:05:52.715Z,1.42
2022-12-07T22:08:19.649Z,1.10
2022-12-07T22:10:46.552Z,1.65
2022-12-07T22:13:13.201Z,1.30
2022-12-07T22:15:40.699Z,1.77
2022-12-07T22:18:07.875Z,1.00
2022-12-07T22:20:35.146Z,1.40
2022-12-07T22:23:02.283Z,1.25
2022-12-07T22:25:29.143Z,1.05
2022-12-07T22:27:55.812Z,1.15
2022-12-07T22:30:22.564Z,0.95
2022-12-07T22:32:49.759Z,1.50
2022-12-07T22:35:17.060Z,1.00
2022-12-07T22:37:43.760Z,1.05
2022-12-07T22:40:11.738Z,1.02
2022-12-07T22:42:38.489Z,1.45
2022-12-07T22:45:05.682Z,0.90
2022-12-07T22:47:32.641Z,1.15
2022-12-07T22:50:00.504Z,1.13
2022-12-07T22:52:27.768Z,1.20
2022-12-07T22:54:54.485Z,1.40
2022-12-07T22:57:21.260Z,1.40
2022-12-07T22:59:48.034Z,1.60
2022-12-07T23:02:14.800Z,1.95
2022-12-07T23:04:41.655Z,1.55
2022-12-07T23:07:08.452Z,1.70
2022-12-07T23:09:35.236Z,2.00
2022-12-07T23:12:20.213Z,2.28
2022-12-07T23:14:46.967Z,2.35
2022-12-07T23:17:13.743Z,2.35
2022-12-07T23:19:40.512Z,1.77
2022-12-07T23:22:07.306Z,1.33
2022-12-07T23:24:33.964Z,1.48
2022-12-07T23:27:00.792Z,3.13
2022-12-07T23:29:27.485Z,1.30
2022-12-07T23:31:54.300Z,1.20
2022-12-07T23:34:21.144Z,1.20
2022-12-07T23:36:47.917Z,1.00
2022-12-07T23:39:14.714Z,1.20
2022-12-07T23:41:41.486Z,1.10
2022-12-07T23:44:08.341Z,0.90
2022-12-07T23:46:35.176Z,1.10
2022-12-07T23:49:02.686Z,1.38
2022-12-07T23:51:29.626Z,1.00
2022-12-07T23:53:56.452Z,1.00
2022-12-07T23:56:25.164Z,0.93
2022-12-07T23:58:52.046Z,1.10
